MET'MAP v2.0
soon released !

Expected late october,
this new version will be
more efficient, smarter,
and hosted on a brand new
server x3 powerfull...
...and still free !


Not compatible ?
Try the mobile version !

LOG IN : | Subscribe | Disclaimer | Who is Orbifly ? |
ICAO code :

TAF - ETNH Hohn AB - 26 Feb 2020 11:39 UTC - Data Source NOAA   


- Airport Elevation : 39 ft
- No reported NOTAMs.


ETNH - Hohn AB

Latest METAR recorded : 2015/08/11 07:20 ETNH 110720Z VRB01KT 9999 SCT038 BKN220 19/15 Q1017 BLU+BLU
TAF AMD TAF ETNH
Valid from the 26 at 07:00 until the 26 at 18:00 UTC


260724Z 2607/2618 25008KT 9999 NSW SCT012 SCT030
TEMPO 2607/2612 27008KT 8000 NSW BKN020
PROB30 2607/2610 27012G22KT 4000 SHRASN BKN012TCU
BECMG 2610/2612 31012KT 9999 NSW BKN025
BECMG 2614/2616 32010KT 9999 NSW BKN007 OVC015 BY ETGL

Source NOAA


MET'MAP, your aeronautical weather chart ! - Copyright ORBIFLY December 2007

Programming & Development : Alexandra Zaïnal
Co-Developer : Marc-Olivier Méhu
Technical & hardware support : Manuel Goepfert
Concept & Financing : Baudouin d'Aumeries